sensor_id;sensor_type;location;lat;lon;timestamp;P1;durP1;ratioP1;P2;durP2;ratioP2
7181;SDS011;3632;42.724;23.298;2024-01-15T00:01:45;206.23;;;105.97;;
7181;SDS011;3632;42.724;23.298;2024-01-15T00:04:13;205.37;;;107.57;;
7181;SDS011;3632;42.724;23.298;2024-01-15T00:06:40;201.27;;;102.80;;
7181;SDS011;3632;42.724;23.298;2024-01-15T00:09:06;193.33;;;101.70;;
7181;SDS011;3632;42.724;23.298;2024-01-15T00:11:33;168.93;;;90.00;;
7181;SDS011;3632;42.724;23.298;2024-01-15T00:14:00;170.83;;;93.40;;
7181;SDS011;3632;42.724;23.298;2024-01-15T00:16:29;142.97;;;76.13;;
7181;SDS011;3632;42.724;23.298;2024-01-15T00:18:56;145.93;;;76.70;;
7181;SDS011;3632;42.724;23.298;2024-01-15T00:21:23;150.17;;;80.10;;
7181;SDS011;3632;42.724;23.298;2024-01-15T00:23:49;145.03;;;77.30;;
7181;SDS011;3632;42.724;23.298;2024-01-15T00:26:16;163.60;;;81.43;;
7181;SDS011;3632;42.724;23.298;2024-01-15T00:28:44;147.73;;;78.30;;
7181;SDS011;3632;42.724;23.298;2024-01-15T00:31:11;150.47;;;76.87;;
7181;SDS011;3632;42.724;23.298;2024-01-15T00:33:39;153.80;;;73.03;;
7181;SDS011;3632;42.724;23.298;2024-01-15T00:36:06;156.43;;;83.03;;
7181;SDS011;3632;42.724;23.298;2024-01-15T00:38:33;151.83;;;82.23;;
7181;SDS011;3632;42.724;23.298;2024-01-15T00:40:59;153.77;;;78.27;;
7181;SDS011;3632;42.724;23.298;2024-01-15T00:43:27;156.63;;;79.73;;
7181;SDS011;3632;42.724;23.298;2024-01-15T00:45:53;156.93;;;84.33;;
7181;SDS011;3632;42.724;23.298;2024-01-15T00:48:20;147.37;;;78.50;;
7181;SDS011;3632;42.724;23.298;2024-01-15T00:50:48;140.70;;;71.60;;
7181;SDS011;3632;42.724;23.298;2024-01-15T00:53:15;155.80;;;85.07;;
7181;SDS011;3632;42.724;23.298;2024-01-15T00:55:41;155.40;;;83.43;;
7181;SDS011;3632;42.724;23.298;2024-01-15T00:58:08;142.10;;;73.93;;
7181;SDS011;3632;42.724;23.298;2024-01-15T01:00:35;172.00;;;86.90;;
7181;SDS011;3632;42.724;23.298;2024-01-15T01:03:01;167.40;;;86.00;;
7181;SDS011;3632;42.724;23.298;2024-01-15T01:05:28;159.00;;;83.43;;
7181;SDS011;3632;42.724;23.298;2024-01-15T01:07:56;157.50;;;81.77;;
7181;SDS011;3632;42.724;23.298;2024-01-15T01:10:23;148.60;;;76.57;;
7181;SDS011;3632;42.724;23.298;2024-01-15T01:12:50;149.53;;;79.23;;
7181;SDS011;3632;42.724;23.298;2024-01-15T01:15:16;153.30;;;79.50;;
7181;SDS011;3632;42.724;23.298;2024-01-15T01:17:43;154.23;;;79.87;;
7181;SDS011;3632;42.724;23.298;2024-01-15T01:20:10;148.17;;;78.90;;
7181;SDS011;3632;42.724;23.298;2024-01-15T01:22:37;155.07;;;81.43;;
7181;SDS011;3632;42.724;23.298;2024-01-15T01:25:06;149.17;;;79.27;;
7181;SDS011;3632;42.724;23.298;2024-01-15T01:27:33;142.50;;;76.17;;
7181;SDS011;3632;42.724;23.298;2024-01-15T01:29:59;160.13;;;78.20;;
7181;SDS011;3632;42.724;23.298;2024-01-15T01:32:26;146.07;;;75.60;;
7181;SDS011;3632;42.724;23.298;2024-01-15T01:34:53;145.53;;;74.77;;
7181;SDS011;3632;42.724;23.298;2024-01-15T01:37:20;142.00;;;75.67;;
7181;SDS011;3632;42.724;23.298;2024-01-15T01:39:46;143.50;;;72.60;;
7181;SDS011;3632;42.724;23.298;2024-01-15T01:42:15;150.83;;;76.50;;
7181;SDS011;3632;42.724;23.298;2024-01-15T01:44:42;142.20;;;72.53;;
7181;SDS011;3632;42.724;23.298;2024-01-15T01:47:09;150.17;;;72.97;;
7181;SDS011;3632;42.724;23.298;2024-01-15T01:49:36;135.47;;;67.73;;
7181;SDS011;3632;42.724;23.298;2024-01-15T01:52:04;136.27;;;66.47;;
7181;SDS011;3632;42.724;23.298;2024-01-15T01:54:32;129.90;;;68.10;;
7181;SDS011;3632;42.724;23.298;2024-01-15T01:56:59;132.87;;;66.87;;
7181;SDS011;3632;42.724;23.298;2024-01-15T01:59:31;127.23;;;64.87;;
7181;SDS011;3632;42.724;23.298;2024-01-15T02:01:59;133.57;;;64.90;;
7181;SDS011;3632;42.724;23.298;2024-01-15T02:04:27;124.10;;;64.27;;
7181;SDS011;3632;42.724;23.298;2024-01-15T02:06:54;126.33;;;65.47;;
7181;SDS011;3632;42.724;23.298;2024-01-15T02:09:21;126.17;;;65.50;;
7181;SDS011;3632;42.724;23.298;2024-01-15T02:11:47;124.90;;;65.73;;
7181;SDS011;3632;42.724;23.298;2024-01-15T02:14:14;120.37;;;64.83;;
7181;SDS011;3632;42.724;23.298;2024-01-15T02:16:43;132.63;;;65.80;;
7181;SDS011;3632;42.724;23.298;2024-01-15T02:19:14;130.80;;;69.60;;
7181;SDS011;3632;42.724;23.298;2024-01-15T02:21:42;131.23;;;69.10;;
7181;SDS011;3632;42.724;23.298;2024-01-15T02:24:10;134.00;;;68.40;;
7181;SDS011;3632;42.724;23.298;2024-01-15T02:26:37;140.33;;;68.30;;
7181;SDS011;3632;42.724;23.298;2024-01-15T02:29:04;133.03;;;67.33;;
7181;SDS011;3632;42.724;23.298;2024-01-15T02:31:33;131.93;;;64.90;;
7181;SDS011;3632;42.724;23.298;2024-01-15T02:33:59;128.07;;;67.23;;
7181;SDS011;3632;42.724;23.298;2024-01-15T02:36:26;134.47;;;68.63;;
7181;SDS011;3632;42.724;23.298;2024-01-15T02:38:53;131.17;;;68.13;;
7181;SDS011;3632;42.724;23.298;2024-01-15T02:41:21;132.77;;;68.03;;
7181;SDS011;3632;42.724;23.298;2024-01-15T02:43:48;129.60;;;68.20;;
7181;SDS011;3632;42.724;23.298;2024-01-15T02:46:15;144.07;;;73.30;;
7181;SDS011;3632;42.724;23.298;2024-01-15T02:48:42;130.97;;;69.40;;
7181;SDS011;3632;42.724;23.298;2024-01-15T02:51:09;127.87;;;68.17;;
7181;SDS011;3632;42.724;23.298;2024-01-15T02:53:38;133.27;;;67.47;;
7181;SDS011;3632;42.724;23.298;2024-01-15T02:56:06;136.87;;;68.57;;
7181;SDS011;3632;42.724;23.298;2024-01-15T02:58:35;145.40;;;77.27;;
7181;SDS011;3632;42.724;23.298;2024-01-15T03:01:01;150.90;;;81.93;;
7181;SDS011;3632;42.724;23.298;2024-01-15T03:03:28;152.57;;;81.40;;
7181;SDS011;3632;42.724;23.298;2024-01-15T03:05:55;139.87;;;72.53;;
7181;SDS011;3632;42.724;23.298;2024-01-15T03:08:22;138.20;;;71.60;;
7181;SDS011;3632;42.724;23.298;2024-01-15T03:10:49;141.60;;;69.13;;
7181;SDS011;3632;42.724;23.298;2024-01-15T03:13:31;134.77;;;71.40;;
7181;SDS011;3632;42.724;23.298;2024-01-15T03:16:05;134.77;;;71.67;;
7181;SDS011;3632;42.724;23.298;2024-01-15T03:18:32;131.80;;;71.70;;
7181;SDS011;3632;42.724;23.298;2024-01-15T03:20:58;146.80;;;78.57;;
7181;SDS011;3632;42.724;23.298;2024-01-15T03:23:26;147.50;;;74.53;;
7181;SDS011;3632;42.724;23.298;2024-01-15T03:25:53;148.43;;;75.93;;
7181;SDS011;3632;42.724;23.298;2024-01-15T03:28:20;138.20;;;72.13;;
7181;SDS011;3632;42.724;23.298;2024-01-15T03:30:46;136.87;;;73.83;;
7181;SDS011;3632;42.724;23.298;2024-01-15T03:33:15;143.80;;;74.50;;
7181;SDS011;3632;42.724;23.298;2024-01-15T03:35:41;137.90;;;73.43;;
7181;SDS011;3632;42.724;23.298;2024-01-15T03:38:08;136.70;;;72.33;;
7181;SDS011;3632;42.724;23.298;2024-01-15T03:40:35;135.53;;;70.67;;
7181;SDS011;3632;42.724;23.298;2024-01-15T03:43:02;141.33;;;76.90;;
7181;SDS011;3632;42.724;23.298;2024-01-15T03:45:29;139.23;;;75.70;;
7181;SDS011;3632;42.724;23.298;2024-01-15T03:47:56;141.90;;;75.07;;
7181;SDS011;3632;42.724;23.298;2024-01-15T03:50:24;141.63;;;75.37;;
7181;SDS011;3632;42.724;23.298;2024-01-15T03:52:50;145.70;;;75.23;;
7181;SDS011;3632;42.724;23.298;2024-01-15T03:55:17;147.10;;;80.70;;
7181;SDS011;3632;42.724;23.298;2024-01-15T03:57:44;140.23;;;76.60;;
7181;SDS011;3632;42.724;23.298;2024-01-15T04:00:11;144.83;;;79.27;;
7181;SDS011;3632;42.724;23.298;2024-01-15T04:02:42;151.80;;;79.50;;
7181;SDS011;3632;42.724;23.298;2024-01-15T04:05:19;146.80;;;78.43;;
7181;SDS011;3632;42.724;23.298;2024-01-15T04:07:47;141.13;;;75.83;;
7181;SDS011;3632;42.724;23.298;2024-01-15T04:10:14;149.53;;;83.33;;
7181;SDS011;3632;42.724;23.298;2024-01-15T04:12:40;150.57;;;79.80;;
7181;SDS011;3632;42.724;23.298;2024-01-15T04:15:07;141.63;;;77.63;;
7181;SDS011;3632;42.724;23.298;2024-01-15T04:17:34;120.70;;;62.53;;
7181;SDS011;3632;42.724;23.298;2024-01-15T04:20:01;111.50;;;61.13;;
7181;SDS011;3632;42.724;23.298;2024-01-15T04:22:28;128.30;;;66.60;;
7181;SDS011;3632;42.724;23.298;2024-01-15T04:24:56;123.27;;;65.60;;
7181;SDS011;3632;42.724;23.298;2024-01-15T04:27:23;119.57;;;63.97;;
7181;SDS011;3632;42.724;23.298;2024-01-15T04:29:50;104.80;;;58.20;;
7181;SDS011;3632;42.724;23.298;2024-01-15T04:32:16;111.43;;;60.70;;
7181;SDS011;3632;42.724;23.298;2024-01-15T04:34:43;109.33;;;58.67;;
7181;SDS011;3632;42.724;23.298;2024-01-15T04:37:10;105.57;;;58.33;;
7181;SDS011;3632;42.724;23.298;2024-01-15T04:39:37;125.40;;;69.97;;
7181;SDS011;3632;42.724;23.298;2024-01-15T04:42:05;139.07;;;74.33;;
7181;SDS011;3632;42.724;23.298;2024-01-15T04:44:32;145.20;;;78.60;;
7181;SDS011;3632;42.724;23.298;2024-01-15T04:46:58;141.30;;;77.77;;
7181;SDS011;3632;42.724;23.298;2024-01-15T04:49:25;134.73;;;70.97;;
7181;SDS011;3632;42.724;23.298;2024-01-15T04:51:52;130.13;;;71.43;;
7181;SDS011;3632;42.724;23.298;2024-01-15T04:54:19;118.20;;;66.43;;
7181;SDS011;3632;42.724;23.298;2024-01-15T04:56:45;124.13;;;68.93;;
7181;SDS011;3632;42.724;23.298;2024-01-15T04:59:14;124.17;;;69.53;;
7181;SDS011;3632;42.724;23.298;2024-01-15T05:01:41;134.77;;;71.97;;
7181;SDS011;3632;42.724;23.298;2024-01-15T05:04:07;136.47;;;75.53;;
7181;SDS011;3632;42.724;23.298;2024-01-15T05:06:34;130.83;;;73.07;;
7181;SDS011;3632;42.724;23.298;2024-01-15T05:09:01;137.07;;;74.23;;
7181;SDS011;3632;42.724;23.298;2024-01-15T05:11:29;130.57;;;70.83;;
7181;SDS011;3632;42.724;23.298;2024-01-15T05:13:56;114.13;;;61.13;;
7181;SDS011;3632;42.724;23.298;2024-01-15T05:16:24;106.00;;;57.37;;
7181;SDS011;3632;42.724;23.298;2024-01-15T05:18:50;104.37;;;55.63;;
7181;SDS011;3632;42.724;23.298;2024-01-15T05:21:17;111.20;;;56.37;;
7181;SDS011;3632;42.724;23.298;2024-01-15T05:23:44;104.90;;;55.07;;
7181;SDS011;3632;42.724;23.298;2024-01-15T05:26:11;102.63;;;54.20;;
7181;SDS011;3632;42.724;23.298;2024-01-15T05:28:37;117.60;;;62.80;;
7181;SDS011;3632;42.724;23.298;2024-01-15T05:31:04;128.27;;;70.50;;
7181;SDS011;3632;42.724;23.298;2024-01-15T05:33:32;131.83;;;72.87;;
7181;SDS011;3632;42.724;23.298;2024-01-15T05:35:59;171.00;;;92.77;;
7181;SDS011;3632;42.724;23.298;2024-01-15T05:38:26;198.23;;;103.03;;
7181;SDS011;3632;42.724;23.298;2024-01-15T05:40:53;214.40;;;107.57;;
7181;SDS011;3632;42.724;23.298;2024-01-15T05:43:20;228.93;;;109.77;;
7181;SDS011;3632;42.724;23.298;2024-01-15T05:45:46;209.20;;;108.97;;
7181;SDS011;3632;42.724;23.298;2024-01-15T05:48:13;155.70;;;82.50;;
7181;SDS011;3632;42.724;23.298;2024-01-15T05:50:41;167.03;;;85.27;;
7181;SDS011;3632;42.724;23.298;2024-01-15T05:53:08;202.13;;;100.17;;
7181;SDS011;3632;42.724;23.298;2024-01-15T05:55:35;184.17;;;98.40;;
7181;SDS011;3632;42.724;23.298;2024-01-15T05:58:03;180.53;;;91.40;;
7181;SDS011;3632;42.724;23.298;2024-01-15T06:00:30;168.43;;;89.43;;
7181;SDS011;3632;42.724;23.298;2024-01-15T06:02:58;139.13;;;78.67;;
7181;SDS011;3632;42.724;23.298;2024-01-15T06:05:24;125.30;;;67.70;;
7181;SDS011;3632;42.724;23.298;2024-01-15T06:07:52;128.77;;;69.20;;
7181;SDS011;3632;42.724;23.298;2024-01-15T06:10:19;126.23;;;70.97;;
7181;SDS011;3632;42.724;23.298;2024-01-15T06:12:46;128.90;;;69.20;;
7181;SDS011;3632;42.724;23.298;2024-01-15T06:15:13;124.93;;;65.93;;
7181;SDS011;3632;42.724;23.298;2024-01-15T06:17:39;126.03;;;70.13;;
7181;SDS011;3632;42.724;23.298;2024-01-15T06:20:07;133.83;;;75.33;;
7181;SDS011;3632;42.724;23.298;2024-01-15T06:22:35;128.40;;;67.83;;
7181;SDS011;3632;42.724;23.298;2024-01-15T06:25:06;135.43;;;72.57;;
7181;SDS011;3632;42.724;23.298;2024-01-15T06:27:33;174.63;;;93.27;;
7181;SDS011;3632;42.724;23.298;2024-01-15T06:29:59;177.73;;;98.47;;
7181;SDS011;3632;42.724;23.298;2024-01-15T06:32:27;231.10;;;123.40;;
7181;SDS011;3632;42.724;23.298;2024-01-15T06:34:54;201.03;;;113.63;;
7181;SDS011;3632;42.724;23.298;2024-01-15T06:37:20;198.73;;;106.07;;
7181;SDS011;3632;42.724;23.298;2024-01-15T06:39:47;192.87;;;106.50;;
7181;SDS011;3632;42.724;23.298;2024-01-15T06:42:15;187.73;;;103.10;;
7181;SDS011;3632;42.724;23.298;2024-01-15T06:44:42;163.60;;;90.43;;
7181;SDS011;3632;42.724;23.298;2024-01-15T06:47:08;136.80;;;76.30;;
7181;SDS011;3632;42.724;23.298;2024-01-15T06:49:35;116.27;;;65.83;;
7181;SDS011;3632;42.724;23.298;2024-01-15T06:52:02;148.97;;;85.90;;
7181;SDS011;3632;42.724;23.298;2024-01-15T06:54:29;158.10;;;88.93;;
7181;SDS011;3632;42.724;23.298;2024-01-15T06:56:56;139.90;;;81.37;;
7181;SDS011;3632;42.724;23.298;2024-01-15T06:59:24;141.00;;;81.17;;
7181;SDS011;3632;42.724;23.298;2024-01-15T07:01:51;135.57;;;77.03;;
7181;SDS011;3632;42.724;23.298;2024-01-15T07:04:17;117.73;;;65.90;;
7181;SDS011;3632;42.724;23.298;2024-01-15T07:06:44;95.67;;;54.60;;
7181;SDS011;3632;42.724;23.298;2024-01-15T07:09:13;93.27;;;52.17;;
7181;SDS011;3632;42.724;23.298;2024-01-15T07:11:43;282.23;;;109.80;;
7181;SDS011;3632;42.724;23.298;2024-01-15T07:14:11;302.50;;;124.67;;
7181;SDS011;3632;42.724;23.298;2024-01-15T07:16:39;262.63;;;115.13;;
7181;SDS011;3632;42.724;23.298;2024-01-15T07:19:05;238.60;;;104.90;;
7181;SDS011;3632;42.724;23.298;2024-01-15T07:21:32;222.77;;;103.23;;
7181;SDS011;3632;42.724;23.298;2024-01-15T07:23:59;208.77;;;96.73;;
7181;SDS011;3632;42.724;23.298;2024-01-15T07:26:26;173.23;;;88.47;;
7181;SDS011;3632;42.724;23.298;2024-01-15T07:28:52;169.40;;;84.63;;
7181;SDS011;3632;42.724;23.298;2024-01-15T07:31:19;164.03;;;83.37;;
7181;SDS011;3632;42.724;23.298;2024-01-15T07:33:48;179.60;;;85.40;;
7181;SDS011;3632;42.724;23.298;2024-01-15T07:36:14;174.80;;;83.83;;
7181;SDS011;3632;42.724;23.298;2024-01-15T07:38:41;161.00;;;79.20;;
7181;SDS011;3632;42.724;23.298;2024-01-15T07:41:12;167.77;;;83.50;;
7181;SDS011;3632;42.724;23.298;2024-01-15T07:43:39;111.83;;;59.93;;
7181;SDS011;3632;42.724;23.298;2024-01-15T07:46:06;127.67;;;66.60;;
7181;SDS011;3632;42.724;23.298;2024-01-15T07:48:35;120.43;;;63.73;;
7181;SDS011;3632;42.724;23.298;2024-01-15T07:51:03;90.23;;;50.07;;
7181;SDS011;3632;42.724;23.298;2024-01-15T07:53:30;92.70;;;49.63;;
7181;SDS011;3632;42.724;23.298;2024-01-15T07:55:57;92.70;;;51.10;;
7181;SDS011;3632;42.724;23.298;2024-01-15T07:58:24;100.20;;;49.97;;
7181;SDS011;3632;42.724;23.298;2024-01-15T08:00:51;145.57;;;73.93;;
7181;SDS011;3632;42.724;23.298;2024-01-15T08:03:18;125.10;;;65.40;;
7181;SDS011;3632;42.724;23.298;2024-01-15T08:05:44;122.83;;;64.37;;
7181;SDS011;3632;42.724;23.298;2024-01-15T08:08:13;123.80;;;64.43;;
7181;SDS011;3632;42.724;23.298;2024-01-15T08:10:40;129.63;;;69.50;;
7181;SDS011;3632;42.724;23.298;2024-01-15T08:13:07;142.07;;;70.63;;
7181;SDS011;3632;42.724;23.298;2024-01-15T08:15:34;135.57;;;71.97;;
7181;SDS011;3632;42.724;23.298;2024-01-15T08:18:01;150.80;;;77.13;;
7181;SDS011;3632;42.724;23.298;2024-01-15T08:20:28;137.73;;;76.17;;
7181;SDS011;3632;42.724;23.298;2024-01-15T08:22:54;124.73;;;71.73;;
7181;SDS011;3632;42.724;23.298;2024-01-15T08:25:23;118.77;;;66.80;;
7181;SDS011;3632;42.724;23.298;2024-01-15T08:27:51;121.30;;;64.73;;
7181;SDS011;3632;42.724;23.298;2024-01-15T08:30:18;117.77;;;64.27;;
7181;SDS011;3632;42.724;23.298;2024-01-15T08:32:45;116.80;;;66.33;;
7181;SDS011;3632;42.724;23.298;2024-01-15T08:35:12;111.03;;;63.47;;
7181;SDS011;3632;42.724;23.298;2024-01-15T08:37:48;103.63;;;60.90;;
7181;SDS011;3632;42.724;23.298;2024-01-15T08:40:15;107.13;;;60.53;;
7181;SDS011;3632;42.724;23.298;2024-01-15T08:42:43;108.07;;;62.17;;
7181;SDS011;3632;42.724;23.298;2024-01-15T08:45:11;105.33;;;60.70;;
7181;SDS011;3632;42.724;23.298;2024-01-15T08:47:37;108.47;;;60.23;;
7181;SDS011;3632;42.724;23.298;2024-01-15T08:50:05;98.07;;;57.27;;
7181;SDS011;3632;42.724;23.298;2024-01-15T08:52:35;101.07;;;57.57;;
7181;SDS011;3632;42.724;23.298;2024-01-15T08:55:02;100.53;;;56.83;;
7181;SDS011;3632;42.724;23.298;2024-01-15T08:57:29;105.63;;;58.53;;
7181;SDS011;3632;42.724;23.298;2024-01-15T08:59:57;103.50;;;56.67;;
7181;SDS011;3632;42.724;23.298;2024-01-15T09:02:25;103.50;;;57.90;;
7181;SDS011;3632;42.724;23.298;2024-01-15T09:04:52;106.37;;;59.43;;
7181;SDS011;3632;42.724;23.298;2024-01-15T09:07:18;97.50;;;58.37;;
7181;SDS011;3632;42.724;23.298;2024-01-15T09:09:45;121.50;;;64.53;;
7181;SDS011;3632;42.724;23.298;2024-01-15T09:12:12;121.77;;;69.97;;
7181;SDS011;3632;42.724;23.298;2024-01-15T09:14:40;127.60;;;72.40;;
7181;SDS011;3632;42.724;23.298;2024-01-15T09:17:08;129.33;;;73.93;;
7181;SDS011;3632;42.724;23.298;2024-01-15T09:19:35;115.80;;;67.83;;
7181;SDS011;3632;42.724;23.298;2024-01-15T09:22:02;113.70;;;67.13;;
7181;SDS011;3632;42.724;23.298;2024-01-15T09:24:29;121.27;;;71.47;;
7181;SDS011;3632;42.724;23.298;2024-01-15T09:26:55;111.63;;;67.03;;
7181;SDS011;3632;42.724;23.298;2024-01-15T09:29:22;106.70;;;64.97;;
7181;SDS011;3632;42.724;23.298;2024-01-15T09:31:49;108.63;;;62.87;;
7181;SDS011;3632;42.724;23.298;2024-01-15T09:34:17;97.97;;;60.80;;
7181;SDS011;3632;42.724;23.298;2024-01-15T09:36:44;103.27;;;59.23;;
7181;SDS011;3632;42.724;23.298;2024-01-15T09:39:11;95.07;;;57.73;;
7181;SDS011;3632;42.724;23.298;2024-01-15T09:41:38;84.90;;;52.97;;
7181;SDS011;3632;42.724;23.298;2024-01-15T09:44:04;78.23;;;49.87;;
7181;SDS011;3632;42.724;23.298;2024-01-15T09:46:32;74.47;;;47.20;;
7181;SDS011;3632;42.724;23.298;2024-01-15T09:49:00;82.70;;;49.27;;
7181;SDS011;3632;42.724;23.298;2024-01-15T09:51:29;74.13;;;43.87;;
7181;SDS011;3632;42.724;23.298;2024-01-15T09:53:58;76.87;;;44.13;;
7181;SDS011;3632;42.724;23.298;2024-01-15T09:56:25;66.33;;;43.93;;
7181;SDS011;3632;42.724;23.298;2024-01-15T09:58:52;67.57;;;42.03;;
7181;SDS011;3632;42.724;23.298;2024-01-15T10:01:20;65.40;;;40.57;;
7181;SDS011;3632;42.724;23.298;2024-01-15T10:03:47;65.23;;;40.93;;
7181;SDS011;3632;42.724;23.298;2024-01-15T10:06:14;65.73;;;42.00;;
7181;SDS011;3632;42.724;23.298;2024-01-15T10:08:43;64.23;;;42.63;;
7181;SDS011;3632;42.724;23.298;2024-01-15T10:11:14;62.27;;;41.60;;
7181;SDS011;3632;42.724;23.298;2024-01-15T10:13:41;68.27;;;42.10;;
7181;SDS011;3632;42.724;23.298;2024-01-15T10:16:10;66.17;;;41.80;;
7181;SDS011;3632;42.724;23.298;2024-01-15T10:18:37;61.43;;;39.90;;
7181;SDS011;3632;42.724;23.298;2024-01-15T10:21:06;56.57;;;38.47;;
7181;SDS011;3632;42.724;23.298;2024-01-15T10:23:33;60.57;;;39.20;;
7181;SDS011;3632;42.724;23.298;2024-01-15T10:26:02;58.77;;;37.80;;
7181;SDS011;3632;42.724;23.298;2024-01-15T10:28:29;58.00;;;38.03;;
7181;SDS011;3632;42.724;23.298;2024-01-15T10:30:57;55.73;;;37.90;;
7181;SDS011;3632;42.724;23.298;2024-01-15T10:33:25;57.97;;;38.63;;
7181;SDS011;3632;42.724;23.298;2024-01-15T10:35:53;56.73;;;37.77;;
7181;SDS011;3632;42.724;23.298;2024-01-15T10:38:20;55.10;;;36.17;;
7181;SDS011;3632;42.724;23.298;2024-01-15T10:40:48;47.87;;;32.97;;
7181;SDS011;3632;42.724;23.298;2024-01-15T10:43:18;40.17;;;29.57;;
7181;SDS011;3632;42.724;23.298;2024-01-15T10:45:46;53.83;;;35.27;;
7181;SDS011;3632;42.724;23.298;2024-01-15T10:48:13;42.37;;;29.03;;
7181;SDS011;3632;42.724;23.298;2024-01-15T10:50:40;35.60;;;26.90;;
7181;SDS011;3632;42.724;23.298;2024-01-15T10:53:07;42.70;;;26.63;;
7181;SDS011;3632;42.724;23.298;2024-01-15T10:55:35;35.20;;;24.83;;
7181;SDS011;3632;42.724;23.298;2024-01-15T10:58:01;32.20;;;23.10;;
7181;SDS011;3632;42.724;23.298;2024-01-15T11:00:30;31.40;;;23.30;;
7181;SDS011;3632;42.724;23.298;2024-01-15T11:02:57;28.97;;;20.87;;
7181;SDS011;3632;42.724;23.298;2024-01-15T11:05:24;27.30;;;18.10;;
7181;SDS011;3632;42.724;23.298;2024-01-15T11:07:54;25.13;;;16.40;;
7181;SDS011;3632;42.724;23.298;2024-01-15T11:10:40;21.37;;;15.43;;
7181;SDS011;3632;42.724;23.298;2024-01-15T11:13:09;27.47;;;17.50;;
7181;SDS011;3632;42.724;23.298;2024-01-15T11:15:57;24.90;;;18.20;;
7181;SDS011;3632;42.724;23.298;2024-01-15T11:18:26;26.03;;;17.57;;
7181;SDS011;3632;42.724;23.298;2024-01-15T11:23:50;24.70;;;16.53;;
7181;SDS011;3632;42.724;23.298;2024-01-15T11:26:31;27.80;;;17.60;;
7181;SDS011;3632;42.724;23.298;2024-01-15T11:29:02;23.83;;;16.70;;
7181;SDS011;3632;42.724;23.298;2024-01-15T11:37:18;26.03;;;17.13;;
7181;SDS011;3632;42.724;23.298;2024-01-15T11:39:45;22.33;;;16.50;;
7181;SDS011;3632;42.724;23.298;2024-01-15T11:42:13;22.80;;;16.50;;
7181;SDS011;3632;42.724;23.298;2024-01-15T11:44:41;21.83;;;15.17;;
7181;SDS011;3632;42.724;23.298;2024-01-15T11:47:08;25.60;;;17.10;;
7181;SDS011;3632;42.724;23.298;2024-01-15T11:52:33;24.47;;;16.90;;
7181;SDS011;3632;42.724;23.298;2024-01-15T11:55:01;31.03;;;17.97;;
7181;SDS011;3632;42.724;23.298;2024-01-15T11:57:45;32.83;;;20.07;;
7181;SDS011;3632;42.724;23.298;2024-01-15T12:00:12;41.50;;;22.57;;
7181;SDS011;3632;42.724;23.298;2024-01-15T12:02:40;52.07;;;28.60;;
7181;SDS011;3632;42.724;23.298;2024-01-15T12:05:09;49.23;;;32.50;;
7181;SDS011;3632;42.724;23.298;2024-01-15T12:07:38;36.87;;;23.53;;
7181;SDS011;3632;42.724;23.298;2024-01-15T12:10:08;37.37;;;21.67;;
7181;SDS011;3632;42.724;23.298;2024-01-15T12:12:41;37.17;;;22.60;;
7181;SDS011;3632;42.724;23.298;2024-01-15T12:15:17;38.37;;;23.97;;
7181;SDS011;3632;42.724;23.298;2024-01-15T12:17:45;36.83;;;24.73;;
7181;SDS011;3632;42.724;23.298;2024-01-15T12:20:14;38.37;;;23.67;;
7181;SDS011;3632;42.724;23.298;2024-01-15T12:22:41;36.73;;;21.57;;
7181;SDS011;3632;42.724;23.298;2024-01-15T12:25:09;35.63;;;20.87;;
7181;SDS011;3632;42.724;23.298;2024-01-15T12:27:35;31.10;;;20.63;;
7181;SDS011;3632;42.724;23.298;2024-01-15T12:30:03;30.33;;;18.20;;
7181;SDS011;3632;42.724;23.298;2024-01-15T12:32:32;32.07;;;19.27;;
7181;SDS011;3632;42.724;23.298;2024-01-15T12:35:00;25.50;;;16.83;;
7181;SDS011;3632;42.724;23.298;2024-01-15T12:37:28;31.53;;;18.70;;
7181;SDS011;3632;42.724;23.298;2024-01-15T12:39:55;24.30;;;16.70;;
7181;SDS011;3632;42.724;23.298;2024-01-15T12:42:22;40.80;;;19.97;;
7181;SDS011;3632;42.724;23.298;2024-01-15T12:44:49;33.67;;;21.17;;
7181;SDS011;3632;42.724;23.298;2024-01-15T12:47:16;33.50;;;23.03;;
7181;SDS011;3632;42.724;23.298;2024-01-15T12:49:46;35.67;;;23.60;;
7181;SDS011;3632;42.724;23.298;2024-01-15T12:52:13;41.30;;;24.43;;
7181;SDS011;3632;42.724;23.298;2024-01-15T12:54:41;41.73;;;24.53;;
7181;SDS011;3632;42.724;23.298;2024-01-15T12:57:08;45.00;;;22.20;;
7181;SDS011;3632;42.724;23.298;2024-01-15T12:59:34;36.70;;;21.17;;
7181;SDS011;3632;42.724;23.298;2024-01-15T13:02:01;39.93;;;22.07;;
7181;SDS011;3632;42.724;23.298;2024-01-15T13:04:28;33.77;;;21.53;;
7181;SDS011;3632;42.724;23.298;2024-01-15T13:06:54;39.77;;;21.80;;
7181;SDS011;3632;42.724;23.298;2024-01-15T13:09:22;46.47;;;29.53;;
7181;SDS011;3632;42.724;23.298;2024-01-15T13:11:50;38.53;;;23.80;;
7181;SDS011;3632;42.724;23.298;2024-01-15T13:14:17;38.37;;;22.57;;
7181;SDS011;3632;42.724;23.298;2024-01-15T13:16:44;37.00;;;23.57;;
7181;SDS011;3632;42.724;23.298;2024-01-15T13:19:10;38.97;;;23.20;;
7181;SDS011;3632;42.724;23.298;2024-01-15T13:21:38;41.47;;;23.63;;
7181;SDS011;3632;42.724;23.298;2024-01-15T13:24:05;40.90;;;23.17;;
7181;SDS011;3632;42.724;23.298;2024-01-15T13:26:32;40.87;;;24.60;;
7181;SDS011;3632;42.724;23.298;2024-01-15T13:29:00;34.90;;;22.53;;
7181;SDS011;3632;42.724;23.298;2024-01-15T13:31:28;38.23;;;23.27;;
7181;SDS011;3632;42.724;23.298;2024-01-15T13:33:55;40.40;;;23.40;;
7181;SDS011;3632;42.724;23.298;2024-01-15T13:36:23;40.83;;;25.57;;
7181;SDS011;3632;42.724;23.298;2024-01-15T13:38:49;40.13;;;24.40;;
7181;SDS011;3632;42.724;23.298;2024-01-15T13:41:17;41.17;;;23.67;;
7181;SDS011;3632;42.724;23.298;2024-01-15T13:43:49;41.20;;;24.33;;
7181;SDS011;3632;42.724;23.298;2024-01-15T13:46:19;40.67;;;25.30;;
7181;SDS011;3632;42.724;23.298;2024-01-15T13:48:46;45.23;;;25.93;;
7181;SDS011;3632;42.724;23.298;2024-01-15T13:51:13;46.63;;;24.97;;
7181;SDS011;3632;42.724;23.298;2024-01-15T13:53:40;37.70;;;24.83;;
7181;SDS011;3632;42.724;23.298;2024-01-15T13:56:07;45.93;;;25.00;;
7181;SDS011;3632;42.724;23.298;2024-01-15T13:58:35;38.63;;;24.60;;
7181;SDS011;3632;42.724;23.298;2024-01-15T14:01:02;43.33;;;25.53;;
7181;SDS011;3632;42.724;23.298;2024-01-15T14:03:31;50.77;;;26.80;;
7181;SDS011;3632;42.724;23.298;2024-01-15T14:05:57;45.70;;;26.13;;
7181;SDS011;3632;42.724;23.298;2024-01-15T14:08:24;48.40;;;28.00;;
7181;SDS011;3632;42.724;23.298;2024-01-15T14:10:51;42.63;;;25.37;;
7181;SDS011;3632;42.724;23.298;2024-01-15T14:13:18;46.17;;;27.13;;
7181;SDS011;3632;42.724;23.298;2024-01-15T14:15:45;49.77;;;27.27;;
7181;SDS011;3632;42.724;23.298;2024-01-15T14:18:13;47.23;;;28.97;;
7181;SDS011;3632;42.724;23.298;2024-01-15T14:20:42;50.53;;;29.57;;
7181;SDS011;3632;42.724;23.298;2024-01-15T14:23:08;44.83;;;27.20;;
7181;SDS011;3632;42.724;23.298;2024-01-15T14:25:35;57.93;;;35.93;;
7181;SDS011;3632;42.724;23.298;2024-01-15T14:28:02;64.47;;;36.33;;
7181;SDS011;3632;42.724;23.298;2024-01-15T14:30:29;45.87;;;30.27;;
7181;SDS011;3632;42.724;23.298;2024-01-15T14:32:56;46.43;;;28.43;;
7181;SDS011;3632;42.724;23.298;2024-01-15T14:35:22;48.67;;;29.23;;
7181;SDS011;3632;42.724;23.298;2024-01-15T14:37:50;53.30;;;29.30;;
7181;SDS011;3632;42.724;23.298;2024-01-15T14:40:17;59.97;;;30.60;;